sensor_id;sensor_type;location;lat;lon;timestamp;P1;durP1;ratioP1;P2;durP2;ratioP2
32451;SDS011;45528;52.102;5.242;2022-12-18T00:01:00;82.1;;;34.5;;
32451;SDS011;45528;52.102;5.242;2022-12-18T00:04:14;77.2;;;33.3;;
32451;SDS011;45528;52.102;5.242;2022-12-18T00:05:58;84.9;;;34.21;;
32451;SDS011;45528;52.102;5.242;2022-12-18T00:07:35;74.0;;;33.4;;
32451;SDS011;45528;52.102;5.242;2022-12-18T00:09:12;80.11;;;33.3;;
32451;SDS011;45528;52.102;5.242;2022-12-18T00:12:24;77.2;;;32.71;;
32451;SDS011;45528;52.102;5.242;2022-12-18T00:15:37;80.41;;;33.6;;
32451;SDS011;45528;52.102;5.242;2022-12-18T00:18:51;84.7;;;33.6;;
32451;SDS011;45528;52.102;5.242;2022-12-18T00:20:31;81.91;;;31.8;;
32451;SDS011;45528;52.102;5.242;2022-12-18T00:22:12;73.7;;;32.6;;
32451;SDS011;45528;52.102;5.242;2022-12-18T00:23:48;74.61;;;31.9;;
32451;SDS011;45528;52.102;5.242;2022-12-18T00:27:03;82.3;;;33.1;;
32451;SDS011;45528;52.102;5.242;2022-12-18T00:28:39;75.2;;;31.0;;
32451;SDS011;45528;52.102;5.242;2022-12-18T00:30:15;70.11;;;31.8;;
32451;SDS011;45528;52.102;5.242;2022-12-18T00:33:28;71.91;;;30.8;;
32451;SDS011;45528;52.102;5.242;2022-12-18T00:35:06;74.91;;;30.8;;
32451;SDS011;45528;52.102;5.242;2022-12-18T00:36:43;69.0;;;30.1;;
32451;SDS011;45528;52.102;5.242;2022-12-18T00:39:55;70.2;;;31.4;;
32451;SDS011;45528;52.102;5.242;2022-12-18T00:41:31;70.8;;;32.0;;
32451;SDS011;45528;52.102;5.242;2022-12-18T00:43:08;76.11;;;31.6;;
32451;SDS011;45528;52.102;5.242;2022-12-18T00:44:44;70.91;;;31.8;;
32451;SDS011;45528;52.102;5.242;2022-12-18T00:47:57;79.7;;;33.0;;
32451;SDS011;45528;52.102;5.242;2022-12-18T00:49:33;78.8;;;32.21;;
32451;SDS011;45528;52.102;5.242;2022-12-18T00:51:09;75.8;;;33.6;;
32451;SDS011;45528;52.102;5.242;2022-12-18T00:54:22;73.7;;;32.6;;
32451;SDS011;45528;52.102;5.242;2022-12-18T00:55:59;81.5;;;32.3;;
32451;SDS011;45528;52.102;5.242;2022-12-18T00:57:35;82.8;;;31.7;;
32451;SDS011;45528;52.102;5.242;2022-12-18T01:00:47;77.11;;;32.71;;
32451;SDS011;45528;52.102;5.242;2022-12-18T01:02:24;75.3;;;32.0;;
32451;SDS011;45528;52.102;5.242;2022-12-18T01:04:00;86.4;;;33.0;;
32451;SDS011;45528;52.102;5.242;2022-12-18T01:05:38;68.8;;;31.5;;
32451;SDS011;45528;52.102;5.242;2022-12-18T01:08:51;78.3;;;33.3;;
32451;SDS011;45528;52.102;5.242;2022-12-18T01:10:27;78.8;;;33.1;;
32451;SDS011;45528;52.102;5.242;2022-12-18T01:12:04;77.5;;;33.6;;
32451;SDS011;45528;52.102;5.242;2022-12-18T01:15:18;83.5;;;34.4;;
32451;SDS011;45528;52.102;5.242;2022-12-18T01:16:55;73.61;;;31.7;;
32451;SDS011;45528;52.102;5.242;2022-12-18T01:18:31;74.8;;;32.1;;
32451;SDS011;45528;52.102;5.242;2022-12-18T01:21:47;75.11;;;32.1;;
32451;SDS011;45528;52.102;5.242;2022-12-18T01:23:23;86.4;;;34.21;;
32451;SDS011;45528;52.102;5.242;2022-12-18T01:25:03;76.3;;;32.6;;
32451;SDS011;45528;52.102;5.242;2022-12-18T01:26:40;82.7;;;34.81;;
32451;SDS011;45528;52.102;5.242;2022-12-18T01:29:53;78.5;;;33.6;;
32451;SDS011;45528;52.102;5.242;2022-12-18T01:31:30;83.7;;;33.8;;
32451;SDS011;45528;52.102;5.242;2022-12-18T01:33:09;82.5;;;33.4;;
32451;SDS011;45528;52.102;5.242;2022-12-18T01:36:22;86.2;;;34.0;;
32451;SDS011;45528;52.102;5.242;2022-12-18T01:38:00;87.2;;;34.6;;
32451;SDS011;45528;52.102;5.242;2022-12-18T01:39:37;77.11;;;33.3;;
32451;SDS011;45528;52.102;5.242;2022-12-18T01:41:13;81.2;;;34.31;;
32451;SDS011;45528;52.102;5.242;2022-12-18T01:45:00;81.3;;;35.0;;
32451;SDS011;45528;52.102;5.242;2022-12-18T01:46:56;81.0;;;32.5;;
32451;SDS011;45528;52.102;5.242;2022-12-18T01:48:33;74.7;;;32.4;;
32451;SDS011;45528;52.102;5.242;2022-12-18T01:50:10;78.61;;;31.4;;
32451;SDS011;45528;52.102;5.242;2022-12-18T01:51:50;84.5;;;32.5;;
32451;SDS011;45528;52.102;5.242;2022-12-18T01:55:04;83.4;;;33.8;;
32451;SDS011;45528;52.102;5.242;2022-12-18T01:56:42;73.11;;;32.71;;
32451;SDS011;45528;52.102;5.242;2022-12-18T01:58:18;76.5;;;32.0;;
32451;SDS011;45528;52.102;5.242;2022-12-18T01:59:59;74.2;;;30.7;;
32451;SDS011;45528;52.102;5.242;2022-12-18T02:03:19;79.91;;;33.0;;
32451;SDS011;45528;52.102;5.242;2022-12-18T02:04:55;80.7;;;34.1;;
32451;SDS011;45528;52.102;5.242;2022-12-18T02:06:33;75.3;;;32.21;;
32451;SDS011;45528;52.102;5.242;2022-12-18T02:10:02;75.7;;;31.6;;
32451;SDS011;45528;52.102;5.242;2022-12-18T02:11:46;75.0;;;32.1;;
32451;SDS011;45528;52.102;5.242;2022-12-18T02:13:31;76.41;;;31.2;;
32451;SDS011;45528;52.102;5.242;2022-12-18T02:15:19;71.41;;;31.5;;
32451;SDS011;45528;52.102;5.242;2022-12-18T02:17:03;73.5;;;30.8;;
32451;SDS011;45528;52.102;5.242;2022-12-18T02:20:31;71.2;;;30.9;;
32451;SDS011;45528;52.102;5.242;2022-12-18T02:22:16;72.91;;;31.5;;
32451;SDS011;45528;52.102;5.242;2022-12-18T02:24:13;78.2;;;31.9;;
32451;SDS011;45528;52.102;5.242;2022-12-18T02:26:02;70.2;;;30.7;;
32451;SDS011;45528;52.102;5.242;2022-12-18T02:27:47;73.0;;;32.0;;
32451;SDS011;45528;52.102;5.242;2022-12-18T02:29:27;72.3;;;29.4;;
32451;SDS011;45528;52.102;5.242;2022-12-18T02:32:52;69.41;;;29.7;;
32451;SDS011;45528;52.102;5.242;2022-12-18T02:34:31;68.41;;;29.1;;
32451;SDS011;45528;52.102;5.242;2022-12-18T02:36:13;66.6;;;28.9;;
32451;SDS011;45528;52.102;5.242;2022-12-18T02:37:52;68.3;;;29.2;;
32451;SDS011;45528;52.102;5.242;2022-12-18T02:41:08;71.61;;;30.0;;
32451;SDS011;45528;52.102;5.242;2022-12-18T02:42:46;75.7;;;30.6;;
32451;SDS011;45528;52.102;5.242;2022-12-18T02:44:22;67.91;;;29.4;;
32451;SDS011;45528;52.102;5.242;2022-12-18T02:47:56;61.4;;;28.5;;
32451;SDS011;45528;52.102;5.242;2022-12-18T02:49:34;61.4;;;28.5;;
32451;SDS011;45528;52.102;5.242;2022-12-18T02:51:21;73.2;;;31.0;;
32451;SDS011;45528;52.102;5.242;2022-12-18T02:53:07;73.5;;;30.2;;
32451;SDS011;45528;52.102;5.242;2022-12-18T02:54:55;66.5;;;27.9;;
32451;SDS011;45528;52.102;5.242;2022-12-18T02:56:41;66.8;;;28.8;;
32451;SDS011;45528;52.102;5.242;2022-12-18T03:00:10;59.7;;;27.4;;
32451;SDS011;45528;52.102;5.242;2022-12-18T03:01:52;64.2;;;29.1;;
32451;SDS011;45528;52.102;5.242;2022-12-18T03:03:35;67.3;;;28.8;;
32451;SDS011;45528;52.102;5.242;2022-12-18T03:05:16;70.5;;;29.6;;
32451;SDS011;45528;52.102;5.242;2022-12-18T03:06:59;55.1;;;27.4;;
32451;SDS011;45528;52.102;5.242;2022-12-18T03:10:24;66.41;;;28.8;;
32451;SDS011;45528;52.102;5.242;2022-12-18T03:12:06;62.2;;;28.3;;
32451;SDS011;45528;52.102;5.242;2022-12-18T03:13:51;61.8;;;27.5;;
32451;SDS011;45528;52.102;5.242;2022-12-18T03:15:34;61.7;;;28.6;;
32451;SDS011;45528;52.102;5.242;2022-12-18T03:18:56;59.6;;;27.5;;
32451;SDS011;45528;52.102;5.242;2022-12-18T03:20:37;66.8;;;29.2;;
32451;SDS011;45528;52.102;5.242;2022-12-18T03:22:19;64.6;;;27.3;;
32451;SDS011;45528;52.102;5.242;2022-12-18T03:23:59;61.0;;;26.9;;
32451;SDS011;45528;52.102;5.242;2022-12-18T03:27:18;53.5;;;26.3;;
32451;SDS011;45528;52.102;5.242;2022-12-18T03:28:59;65.6;;;27.0;;
32451;SDS011;45528;52.102;5.242;2022-12-18T03:30:43;58.8;;;25.7;;
32451;SDS011;45528;52.102;5.242;2022-12-18T03:32:23;60.9;;;25.9;;
32451;SDS011;45528;52.102;5.242;2022-12-18T03:35:48;59.0;;;26.6;;
32451;SDS011;45528;52.102;5.242;2022-12-18T03:37:25;65.7;;;28.2;;
32451;SDS011;45528;52.102;5.242;2022-12-18T03:39:02;59.8;;;27.8;;
32451;SDS011;45528;52.102;5.242;2022-12-18T03:40:51;60.4;;;26.4;;
32451;SDS011;45528;52.102;5.242;2022-12-18T03:42:36;58.0;;;27.3;;
32451;SDS011;45528;52.102;5.242;2022-12-18T03:46:09;59.0;;;26.0;;
32451;SDS011;45528;52.102;5.242;2022-12-18T03:47:54;55.0;;;25.7;;
32451;SDS011;45528;52.102;5.242;2022-12-18T03:49:38;52.8;;;26.6;;
32451;SDS011;45528;52.102;5.242;2022-12-18T03:51:23;55.5;;;25.8;;
32451;SDS011;45528;52.102;5.242;2022-12-18T03:53:08;56.0;;;26.1;;
32451;SDS011;45528;52.102;5.242;2022-12-18T03:56:35;54.1;;;25.7;;
32451;SDS011;45528;52.102;5.242;2022-12-18T03:58:17;54.4;;;24.8;;
32451;SDS011;45528;52.102;5.242;2022-12-18T03:59:57;55.1;;;25.0;;
32451;SDS011;45528;52.102;5.242;2022-12-18T04:01:38;48.1;;;24.0;;
32451;SDS011;45528;52.102;5.242;2022-12-18T04:04:58;51.2;;;24.8;;
32451;SDS011;45528;52.102;5.242;2022-12-18T04:06:37;51.0;;;24.2;;
32451;SDS011;45528;52.102;5.242;2022-12-18T04:08:16;54.9;;;22.9;;
32451;SDS011;45528;52.102;5.242;2022-12-18T04:09:53;48.5;;;21.8;;
32451;SDS011;45528;52.102;5.242;2022-12-18T04:13:08;47.5;;;22.6;;
32451;SDS011;45528;52.102;5.242;2022-12-18T04:14:44;47.5;;;22.7;;
32451;SDS011;45528;52.102;5.242;2022-12-18T04:16:21;42.7;;;21.8;;
32451;SDS011;45528;52.102;5.242;2022-12-18T04:19:33;45.5;;;21.7;;
32451;SDS011;45528;52.102;5.242;2022-12-18T04:21:09;46.1;;;21.5;;
32451;SDS011;45528;52.102;5.242;2022-12-18T04:22:47;42.6;;;21.0;;
32451;SDS011;45528;52.102;5.242;2022-12-18T04:24:24;41.0;;;19.5;;
32451;SDS011;45528;52.102;5.242;2022-12-18T04:27:36;41.5;;;19.7;;
32451;SDS011;45528;52.102;5.242;2022-12-18T04:29:12;43.4;;;19.91;;
32451;SDS011;45528;52.102;5.242;2022-12-18T04:30:48;43.0;;;19.8;;
32451;SDS011;45528;52.102;5.242;2022-12-18T04:34:01;38.9;;;19.2;;
32451;SDS011;45528;52.102;5.242;2022-12-18T04:35:37;38.6;;;19.2;;
32451;SDS011;45528;52.102;5.242;2022-12-18T04:37:13;41.0;;;19.11;;
32451;SDS011;45528;52.102;5.242;2022-12-18T04:40:25;40.21;;;19.3;;
32451;SDS011;45528;52.102;5.242;2022-12-18T04:42:01;38.5;;;18.0;;
32451;SDS011;45528;52.102;5.242;2022-12-18T04:43:38;40.21;;;19.3;;
32451;SDS011;45528;52.102;5.242;2022-12-18T04:46:50;36.6;;;18.61;;
32451;SDS011;45528;52.102;5.242;2022-12-18T04:48:26;37.9;;;18.5;;
32451;SDS011;45528;52.102;5.242;2022-12-18T04:50:03;34.31;;;18.11;;
32451;SDS011;45528;52.102;5.242;2022-12-18T04:51:40;33.71;;;16.8;;
32451;SDS011;45528;52.102;5.242;2022-12-18T04:54:52;38.1;;;18.3;;
32451;SDS011;45528;52.102;5.242;2022-12-18T04:56:29;34.5;;;18.0;;
32451;SDS011;45528;52.102;5.242;2022-12-18T04:58:07;37.4;;;17.3;;
32451;SDS011;45528;52.102;5.242;2022-12-18T05:01:19;37.21;;;18.0;;
32451;SDS011;45528;52.102;5.242;2022-12-18T05:02:55;34.1;;;17.2;;
32451;SDS011;45528;52.102;5.242;2022-12-18T05:04:31;39.1;;;16.8;;
32451;SDS011;45528;52.102;5.242;2022-12-18T05:07:45;32.4;;;16.2;;
32451;SDS011;45528;52.102;5.242;2022-12-18T05:09:21;31.7;;;16.8;;
32451;SDS011;45528;52.102;5.242;2022-12-18T05:11:00;35.4;;;16.7;;
32451;SDS011;45528;52.102;5.242;2022-12-18T05:12:36;32.3;;;16.2;;
32451;SDS011;45528;52.102;5.242;2022-12-18T05:15:50;34.4;;;16.2;;
32451;SDS011;45528;52.102;5.242;2022-12-18T05:17:28;31.8;;;16.2;;
32451;SDS011;45528;52.102;5.242;2022-12-18T05:19:04;28.2;;;16.0;;
32451;SDS011;45528;52.102;5.242;2022-12-18T05:22:17;33.71;;;15.5;;
32451;SDS011;45528;52.102;5.242;2022-12-18T05:23:53;29.3;;;15.0;;
32451;SDS011;45528;52.102;5.242;2022-12-18T05:25:29;34.4;;;16.9;;
32451;SDS011;45528;52.102;5.242;2022-12-18T05:28:41;33.9;;;16.3;;
32451;SDS011;45528;52.102;5.242;2022-12-18T05:30:18;30.2;;;15.2;;
32451;SDS011;45528;52.102;5.242;2022-12-18T05:31:54;28.6;;;15.1;;
32451;SDS011;45528;52.102;5.242;2022-12-18T05:33:31;27.2;;;14.8;;
32451;SDS011;45528;52.102;5.242;2022-12-18T05:36:47;31.0;;;15.0;;
32451;SDS011;45528;52.102;5.242;2022-12-18T05:38:24;28.4;;;14.6;;
32451;SDS011;45528;52.102;5.242;2022-12-18T05:40:02;29.2;;;14.4;;
32451;SDS011;45528;52.102;5.242;2022-12-18T05:43:16;27.2;;;15.1;;
32451;SDS011;45528;52.102;5.242;2022-12-18T05:44:53;31.6;;;14.6;;
32451;SDS011;45528;52.102;5.242;2022-12-18T05:46:29;28.1;;;14.6;;
32451;SDS011;45528;52.102;5.242;2022-12-18T05:48:06;25.8;;;14.0;;
32451;SDS011;45528;52.102;5.242;2022-12-18T05:51:20;28.1;;;14.0;;
32451;SDS011;45528;52.102;5.242;2022-12-18T05:52:57;27.9;;;14.4;;
32451;SDS011;45528;52.102;5.242;2022-12-18T05:54:33;28.3;;;14.1;;
32451;SDS011;45528;52.102;5.242;2022-12-18T05:57:50;28.9;;;14.8;;
32451;SDS011;45528;52.102;5.242;2022-12-18T05:59:26;26.4;;;13.8;;
32451;SDS011;45528;52.102;5.242;2022-12-18T06:01:06;27.7;;;14.4;;
32451;SDS011;45528;52.102;5.242;2022-12-18T06:02:46;25.5;;;14.4;;
32451;SDS011;45528;52.102;5.242;2022-12-18T06:05:59;26.2;;;13.6;;
32451;SDS011;45528;52.102;5.242;2022-12-18T06:07:35;23.9;;;12.6;;
32451;SDS011;45528;52.102;5.242;2022-12-18T06:09:11;28.0;;;13.8;;
32451;SDS011;45528;52.102;5.242;2022-12-18T06:12:27;27.4;;;13.4;;
32451;SDS011;45528;52.102;5.242;2022-12-18T06:14:03;27.0;;;14.4;;
32451;SDS011;45528;52.102;5.242;2022-12-18T06:15:41;24.6;;;13.6;;
32451;SDS011;45528;52.102;5.242;2022-12-18T06:18:55;27.2;;;13.4;;
32451;SDS011;45528;52.102;5.242;2022-12-18T06:20:32;28.0;;;12.6;;
32451;SDS011;45528;52.102;5.242;2022-12-18T06:22:08;24.0;;;13.3;;
32451;SDS011;45528;52.102;5.242;2022-12-18T06:25:20;27.2;;;13.8;;
32451;SDS011;45528;52.102;5.242;2022-12-18T06:26:56;23.8;;;12.5;;
32451;SDS011;45528;52.102;5.242;2022-12-18T06:28:32;25.2;;;12.8;;
32451;SDS011;45528;52.102;5.242;2022-12-18T06:30:10;25.7;;;11.7;;
32451;SDS011;45528;52.102;5.242;2022-12-18T06:33:25;26.2;;;13.1;;
32451;SDS011;45528;52.102;5.242;2022-12-18T06:35:02;26.0;;;12.8;;
32451;SDS011;45528;52.102;5.242;2022-12-18T06:36:39;26.9;;;13.3;;
32451;SDS011;45528;52.102;5.242;2022-12-18T06:38:16;24.4;;;13.2;;
32451;SDS011;45528;52.102;5.242;2022-12-18T06:41:28;21.7;;;12.1;;
32451;SDS011;45528;52.102;5.242;2022-12-18T06:43:04;21.5;;;11.2;;
32451;SDS011;45528;52.102;5.242;2022-12-18T06:44:41;22.9;;;12.6;;
32451;SDS011;45528;52.102;5.242;2022-12-18T06:47:55;22.0;;;12.4;;
32451;SDS011;45528;52.102;5.242;2022-12-18T06:49:31;19.91;;;11.3;;
32451;SDS011;45528;52.102;5.242;2022-12-18T06:51:07;22.9;;;12.9;;
32451;SDS011;45528;52.102;5.242;2022-12-18T06:54:20;24.0;;;12.7;;
32451;SDS011;45528;52.102;5.242;2022-12-18T06:55:59;20.41;;;12.1;;
32451;SDS011;45528;52.102;5.242;2022-12-18T06:57:36;19.7;;;11.9;;
32451;SDS011;45528;52.102;5.242;2022-12-18T06:59:13;22.7;;;13.4;;
32451;SDS011;45528;52.102;5.242;2022-12-18T07:02:26;23.0;;;13.4;;
32451;SDS011;45528;52.102;5.242;2022-12-18T07:04:03;22.2;;;13.5;;
32451;SDS011;45528;52.102;5.242;2022-12-18T07:05:39;27.0;;;13.5;;
32451;SDS011;45528;52.102;5.242;2022-12-18T07:08:54;23.1;;;13.0;;
32451;SDS011;45528;52.102;5.242;2022-12-18T07:10:30;27.2;;;12.7;;
32451;SDS011;45528;52.102;5.242;2022-12-18T07:12:07;24.8;;;12.4;;
32451;SDS011;45528;52.102;5.242;2022-12-18T07:15:20;21.5;;;12.6;;
32451;SDS011;45528;52.102;5.242;2022-12-18T07:16:56;27.0;;;13.7;;
32451;SDS011;45528;52.102;5.242;2022-12-18T07:18:32;29.3;;;13.4;;
32451;SDS011;45528;52.102;5.242;2022-12-18T07:20:09;25.8;;;13.1;;
32451;SDS011;45528;52.102;5.242;2022-12-18T07:23:22;24.5;;;12.6;;
32451;SDS011;45528;52.102;5.242;2022-12-18T07:24:58;28.1;;;14.1;;
32451;SDS011;45528;52.102;5.242;2022-12-18T07:26:34;28.7;;;12.7;;
32451;SDS011;45528;52.102;5.242;2022-12-18T07:29:47;25.8;;;12.6;;
32451;SDS011;45528;52.102;5.242;2022-12-18T07:31:23;23.6;;;12.7;;
32451;SDS011;45528;52.102;5.242;2022-12-18T07:33:00;26.6;;;13.7;;
32451;SDS011;45528;52.102;5.242;2022-12-18T07:36:13;22.5;;;12.1;;
32451;SDS011;45528;52.102;5.242;2022-12-18T07:37:50;24.8;;;12.4;;
32451;SDS011;45528;52.102;5.242;2022-12-18T07:39:26;22.4;;;13.0;;
32451;SDS011;45528;52.102;5.242;2022-12-18T07:41:03;23.8;;;12.6;;
32451;SDS011;45528;52.102;5.242;2022-12-18T07:44:17;25.0;;;13.2;;
32451;SDS011;45528;52.102;5.242;2022-12-18T07:45:54;22.3;;;12.6;;
32451;SDS011;45528;52.102;5.242;2022-12-18T07:47:33;22.6;;;12.9;;
32451;SDS011;45528;52.102;5.242;2022-12-18T07:50:46;22.5;;;13.0;;
32451;SDS011;45528;52.102;5.242;2022-12-18T07:52:22;23.0;;;12.4;;
32451;SDS011;45528;52.102;5.242;2022-12-18T07:53:59;22.4;;;13.1;;
32451;SDS011;45528;52.102;5.242;2022-12-18T07:57:11;20.5;;;11.8;;
32451;SDS011;45528;52.102;5.242;2022-12-18T07:58:47;22.9;;;12.6;;
32451;SDS011;45528;52.102;5.242;2022-12-18T08:00:24;24.3;;;12.0;;
32451;SDS011;45528;52.102;5.242;2022-12-18T08:02:00;21.1;;;12.1;;
32451;SDS011;45528;52.102;5.242;2022-12-18T08:05:14;23.5;;;13.9;;
32451;SDS011;45528;52.102;5.242;2022-12-18T08:06:50;28.0;;;14.9;;
32451;SDS011;45528;52.102;5.242;2022-12-18T08:08:27;18.91;;;11.7;;
32451;SDS011;45528;52.102;5.242;2022-12-18T08:11:41;21.2;;;12.6;;
32451;SDS011;45528;52.102;5.242;2022-12-18T08:13:18;25.8;;;13.1;;
32451;SDS011;45528;52.102;5.242;2022-12-18T08:14:54;22.4;;;12.3;;
32451;SDS011;45528;52.102;5.242;2022-12-18T08:18:07;26.4;;;12.9;;
32451;SDS011;45528;52.102;5.242;2022-12-18T08:19:43;23.5;;;13.0;;
32451;SDS011;45528;52.102;5.242;2022-12-18T08:21:21;22.6;;;12.7;;
32451;SDS011;45528;52.102;5.242;2022-12-18T08:22:58;21.6;;;12.9;;
32451;SDS011;45528;52.102;5.242;2022-12-18T08:26:10;22.4;;;13.0;;
32451;SDS011;45528;52.102;5.242;2022-12-18T08:27:47;22.8;;;12.7;;
32451;SDS011;45528;52.102;5.242;2022-12-18T08:29:23;22.6;;;12.6;;
32451;SDS011;45528;52.102;5.242;2022-12-18T08:32:36;22.7;;;12.7;;
32451;SDS011;45528;52.102;5.242;2022-12-18T08:34:11;21.7;;;11.7;;
32451;SDS011;45528;52.102;5.242;2022-12-18T08:35:47;20.9;;;12.5;;
32451;SDS011;45528;52.102;5.242;2022-12-18T08:39:00;22.3;;;12.6;;
32451;SDS011;45528;52.102;5.242;2022-12-18T08:40:36;17.41;;;11.7;;
32451;SDS011;45528;52.102;5.242;2022-12-18T08:43:48;23.6;;;13.0;;
32451;SDS011;45528;52.102;5.242;2022-12-18T08:47:01;21.7;;;12.4;;
32451;SDS011;45528;52.102;5.242;2022-12-18T08:48:37;21.2;;;12.7;;
32451;SDS011;45528;52.102;5.242;2022-12-18T08:50:14;22.9;;;12.4;;
32451;SDS011;45528;52.102;5.242;2022-12-18T08:53:30;21.7;;;11.8;;
32451;SDS011;45528;52.102;5.242;2022-12-18T08:55:07;19.7;;;10.9;;
32451;SDS011;45528;52.102;5.242;2022-12-18T08:56:44;20.11;;;11.3;;
32451;SDS011;45528;52.102;5.242;2022-12-18T08:59:57;22.0;;;11.5;;
32451;SDS011;45528;52.102;5.242;2022-12-18T09:01:33;25.9;;;12.5;;
32451;SDS011;45528;52.102;5.242;2022-12-18T09:03:10;21.5;;;11.9;;
32451;SDS011;45528;52.102;5.242;2022-12-18T09:04:47;22.3;;;12.8;;
32451;SDS011;45528;52.102;5.242;2022-12-18T09:08:00;26.7;;;12.5;;
32451;SDS011;45528;52.102;5.242;2022-12-18T09:09:36;23.0;;;12.5;;
32451;SDS011;45528;52.102;5.242;2022-12-18T09:11:14;20.9;;;12.6;;
32451;SDS011;45528;52.102;5.242;2022-12-18T09:14:30;21.4;;;11.7;;
32451;SDS011;45528;52.102;5.242;2022-12-18T09:16:06;24.6;;;12.7;;
32451;SDS011;45528;52.102;5.242;2022-12-18T09:17:43;23.6;;;12.8;;
32451;SDS011;45528;52.102;5.242;2022-12-18T09:20:55;21.3;;;12.3;;
32451;SDS011;45528;52.102;5.242;2022-12-18T09:22:31;22.8;;;12.2;;
32451;SDS011;45528;52.102;5.242;2022-12-18T09:24:08;20.2;;;12.6;;
32451;SDS011;45528;52.102;5.242;2022-12-18T09:25:49;23.3;;;12.4;;
32451;SDS011;45528;52.102;5.242;2022-12-18T09:29:01;27.4;;;15.0;;
32451;SDS011;45528;52.102;5.242;2022-12-18T09:30:38;24.0;;;13.0;;
32451;SDS011;45528;52.102;5.242;2022-12-18T09:32:16;19.91;;;12.6;;
32451;SDS011;45528;52.102;5.242;2022-12-18T09:35:30;20.6;;;11.8;;
32451;SDS011;45528;52.102;5.242;2022-12-18T09:37:07;21.4;;;12.0;;
32451;SDS011;45528;52.102;5.242;2022-12-18T09:38:43;22.8;;;12.9;;
32451;SDS011;45528;52.102;5.242;2022-12-18T09:40:22;23.8;;;13.2;;
32451;SDS011;45528;52.102;5.242;2022-12-18T09:43:40;24.4;;;14.0;;
32451;SDS011;45528;52.102;5.242;2022-12-18T09:45:21;28.5;;;16.11;;
32451;SDS011;45528;52.102;5.242;2022-12-18T09:47:02;24.2;;;14.0;;
32451;SDS011;45528;52.102;5.242;2022-12-18T09:48:46;21.7;;;13.3;;
32451;SDS011;45528;52.102;5.242;2022-12-18T09:52:09;23.8;;;13.4;;
32451;SDS011;45528;52.102;5.242;2022-12-18T09:53:52;25.4;;;12.6;;
32451;SDS011;45528;52.102;5.242;2022-12-18T09:55:33;27.8;;;13.4;;
32451;SDS011;45528;52.102;5.242;2022-12-18T09:57:14;24.2;;;12.1;;
32451;SDS011;45528;52.102;5.242;2022-12-18T10:00:34;20.3;;;12.7;;
32451;SDS011;45528;52.102;5.242;2022-12-18T10:02:12;26.8;;;15.7;;
32451;SDS011;45528;52.102;5.242;2022-12-18T10:03:52;26.5;;;15.6;;
32451;SDS011;45528;52.102;5.242;2022-12-18T10:05:32;21.4;;;13.9;;
32451;SDS011;45528;52.102;5.242;2022-12-18T10:09:11;21.7;;;12.6;;
32451;SDS011;45528;52.102;5.242;2022-12-18T10:10:57;22.4;;;12.4;;
32451;SDS011;45528;52.102;5.242;2022-12-18T10:12:47;21.8;;;12.6;;
32451;SDS011;45528;52.102;5.242;2022-12-18T10:14:34;22.8;;;12.9;;
32451;SDS011;45528;52.102;5.242;2022-12-18T10:16:17;20.8;;;12.1;;
32451;SDS011;45528;52.102;5.242;2022-12-18T10:18:03;22.3;;;12.4;;
32451;SDS011;45528;52.102;5.242;2022-12-18T10:21:39;22.8;;;13.4;;
32451;SDS011;45528;52.102;5.242;2022-12-18T10:23:25;21.8;;;12.6;;
32451;SDS011;45528;52.102;5.242;2022-12-18T10:25:14;24.6;;;12.9;;
32451;SDS011;45528;52.102;5.242;2022-12-18T10:26:56;22.3;;;12.6;;
32451;SDS011;45528;52.102;5.242;2022-12-18T10:28:45;22.9;;;12.8;;
32451;SDS011;45528;52.102;5.242;2022-12-18T10:32:01;22.9;;;12.6;;
32451;SDS011;45528;52.102;5.242;2022-12-18T10:33:37;23.3;;;13.3;;
32451;SDS011;45528;52.102;5.242;2022-12-18T10:35:15;24.1;;;13.0;;
32451;SDS011;45528;52.102;5.242;2022-12-18T10:36:55;21.9;;;12.3;;
32451;SDS011;45528;52.102;5.242;2022-12-18T10:40:10;20.7;;;12.1;;
32451;SDS011;45528;52.102;5.242;2022-12-18T10:41:49;24.5;;;13.4;;
32451;SDS011;45528;52.102;5.242;2022-12-18T10:43:26;27.4;;;15.8;;
32451;SDS011;45528;52.102;5.242;2022-12-18T10:46:50;24.7;;;13.6;;
32451;SDS011;45528;52.102;5.242;2022-12-18T10:48:30;20.8;;;12.6;;
32451;SDS011;45528;52.102;5.242;2022-12-18T10:50:10;21.2;;;11.4;;
32451;SDS011;45528;52.102;5.242;2022-12-18T10:52:04;18.3;;;11.1;;
32451;SDS011;45528;52.102;5.242;2022-12-18T10:53:44;21.3;;;11.8;;
32451;SDS011;45528;52.102;5.242;2022-12-18T10:57:19;20.0;;;11.2;;
32451;SDS011;45528;52.102;5.242;2022-12-18T10:59:07;19.0;;;11.0;;
32451;SDS011;45528;52.102;5.242;2022-12-18T11:00:46;20.0;;;12.5;;
32451;SDS011;45528;52.102;5.242;2022-12-18T11:02:39;21.4;;;11.7;;
32451;SDS011;45528;52.102;5.242;2022-12-18T11:04:16;23.2;;;12.5;;
32451;SDS011;45528;52.102;5.242;2022-12-18T11:07:47;27.7;;;14.5;;
32451;SDS011;45528;52.102;5.242;2022-12-18T11:09:24;19.61;;;11.4;;
32451;SDS011;45528;52.102;5.242;2022-12-18T11:11:02;23.7;;;13.0;;
32451;SDS011;45528;52.102;5.242;2022-12-18T11:12:43;23.1;;;12.7;;
32451;SDS011;45528;52.102;5.242;2022-12-18T11:16:00;21.2;;;11.0;;
32451;SDS011;45528;52.102;5.242;2022-12-18T11:17:36;29.7;;;16.0;;
32451;SDS011;45528;52.102;5.242;2022-12-18T11:19:17;22.3;;;11.5;;
32451;SDS011;45528;52.102;5.242;2022-12-18T11:21:00;21.5;;;12.3;;
32451;SDS011;45528;52.102;5.242;2022-12-18T11:24:33;18.5;;;11.5;;
32451;SDS011;45528;52.102;5.242;2022-12-18T11:26:12;18.7;;;11.0;;
32451;SDS011;45528;52.102;5.242;2022-12-18T11:27:50;20.9;;;11.8;;
32451;SDS011;45528;52.102;5.242;2022-12-18T11:29:33;19.11;;;10.7;;
32451;SDS011;45528;52.102;5.242;2022-12-18T11:31:22;19.0;;;10.0;;
32451;SDS011;45528;52.102;5.242;2022-12-18T11:34:42;19.5;;;12.0;;
32451;SDS011;45528;52.102;5.242;2022-12-18T11:36:23;16.61;;;10.6;;
32451;SDS011;45528;52.102;5.242;2022-12-18T11:38:02;18.7;;;10.4;;
32451;SDS011;45528;52.102;5.242;2022-12-18T11:39:49;16.7;;;10.4;;
32451;SDS011;45528;52.102;5.242;2022-12-18T11:43:17;17.8;;;10.4;;
32451;SDS011;45528;52.102;5.242;2022-12-18T11:45:02;20.3;;;11.5;;
32451;SDS011;45528;52.102;5.242;2022-12-18T11:46:58;20.41;;;11.2;;
32451;SDS011;45528;52.102;5.242;2022-12-18T11:48:38;19.41;;;10.5;;
32451;SDS011;45528;52.102;5.242;2022-12-18T11:50:23;21.2;;;12.7;;
32451;SDS011;45528;52.102;5.242;2022-12-18T11:53:51;25.8;;;12.2;;
32451;SDS011;45528;52.102;5.242;2022-12-18T11:55:31;22.7;;;13.1;;
32451;SDS011;45528;52.102;5.242;2022-12-18T11:57:26;21.3;;;12.9;;
32451;SDS011;45528;52.102;5.242;2022-12-18T11:59:13;20.41;;;11.6;;
32451;SDS011;45528;52.102;5.242;2022-12-18T12:01:03;19.2;;;11.1;;
32451;SDS011;45528;52.102;5.242;2022-12-18T12:03:56;20.7;;;12.2;;
32451;SDS011;45528;52.102;5.242;2022-12-18T12:06:36;19.8;;;11.7;;
32451;SDS011;45528;52.102;5.242;2022-12-18T12:08:24;20.9;;;11.6;;
32451;SDS011;45528;52.102;5.242;2022-12-18T12:10:16;19.3;;;11.3;;
32451;SDS011;45528;52.102;5.242;2022-12-18T12:12:10;19.0;;;11.5;;
32451;SDS011;45528;52.102;5.242;2022-12-18T12:14:06;17.3;;;11.1;;
32451;SDS011;45528;52.102;5.242;2022-12-18T12:16:11;19.41;;;11.8;;
32451;SDS011;45528;52.102;5.242;2022-12-18T12:17:54;20.5;;;11.7;;
32451;SDS011;45528;52.102;5.242;2022-12-18T12:19:43;22.6;;;11.9;;
32451;SDS011;45528;52.102;5.242;2022-12-18T12:21:28;20.8;;;11.7;;
32451;SDS011;45528;52.102;5.242;2022-12-18T12:25:14;22.3;;;11.9;;
32451;SDS011;45528;52.102;5.242;2022-12-18T12:27:00;20.7;;;12.2;;
32451;SDS011;45528;52.102;5.242;2022-12-18T12:28:50;19.8;;;11.5;;
32451;SDS011;45528;52.102;5.242;2022-12-18T12:30:44;19.2;;;10.7;;
32451;SDS011;45528;52.102;5.242;2022-12-18T12:32:38;26.6;;;16.3;;
32451;SDS011;45528;52.102;5.242;2022-12-18T12:34:26;22.5;;;14.6;;
32451;SDS011;45528;52.102;5.242;2022-12-18T12:36:12;22.3;;;12.8;;
32451;SDS011;45528;52.102;5.242;2022-12-18T12:39:45;23.1;;;12.1;;